Berriedale, United Kingdom
Current Conditions -  °F | °C
As of 6:20 AM on Saturday 20 Dec 2014 (Local Time) from EGPC Reporting Station
Few Clouds Few Clouds  
Wind Chill: 28°   Ceiling: Unl
Heat Index: 39°   Visibility: 6mi
Dew Point: 36°   Wind: 28mph
Humidity: 87%   Direction: 300°WNW
Pressure: 29.62"   Gusts: 40mph
Location:  58.2°N, 3.48°W
Report Text: EGPC 200620Z AUTO 30024G35KT 9999 FEW031/// 04/02 Q1003
Loading
Personal Weather Stations






























Interactive Weather Map New forecast layout! Learn more

10-Day Weather Forecast

Advertisements
Track Severe Weather on mobile